Time;durP1;ratioP1;P1;durP2;ratioP2;P2;SDS_P1;SDS_P2;PMS_P1;PMS_P2;Temp;Humidity;BMP_temperature;BMP_pressure;BME280_temperature;BME280_humidity;BME280_pressure;Samples;Min_cycle;Max_cycle;Signal;HPM_P1;HPM_P2
2022/06/07 00:01:22;;;;;;;2.20;2.10;;;18.10;98.50;;;;;;4944376;29;20481;-82
2022/06/07 00:03:49;;;;;;;2.67;2.47;;;18.10;98.70;;;;;;4945192;29;20989;-81
2022/06/07 00:06:16;;;;;;;1.97;1.87;;;18.00;98.80;;;;;;4945467;29;20488;-82
2022/06/07 00:08:44;;;;;;;2.53;2.33;;;18.00;98.90;;;;;;4942697;29;21003;-81
2022/06/07 00:11:10;;;;;;;3.10;2.60;;;17.90;99.00;;;;;;4939644;29;20452;-81
2022/06/07 00:13:37;;;;;;;2.37;2.10;;;18.00;99.10;;;;;;4942467;29;20457;-82
2022/06/07 00:16:04;;;;;;;1.67;1.57;;;17.80;99.10;;;;;;4942816;29;20449;-82
2022/06/07 00:18:31;;;;;;;2.27;2.17;;;17.70;99.30;;;;;;4947865;29;20472;-81
2022/06/07 00:20:58;;;;;;;2.73;2.17;;;17.70;99.40;;;;;;4943048;29;20456;-82
2022/06/07 00:23:24;;;;;;;2.83;2.10;;;17.70;99.70;;;;;;4943370;29;20946;-82
2022/06/07 00:25:55;;;;;;;4.90;1.70;;;17.70;99.90;;;;;;4943498;29;20490;-80
2022/06/07 00:28:22;;;;;;;2.30;2.20;;;17.80;99.70;;;;;;4942781;29;20481;-81
2022/06/07 00:30:49;;;;;;;3.13;2.90;;;17.90;99.70;;;;;;4942797;29;20832;-82
2022/06/07 00:33:16;;;;;;;1.90;1.80;;;17.90;99.80;;;;;;4942350;29;20444;-82
2022/06/07 00:35:43;;;;;;;2.03;1.93;;;17.90;99.80;;;;;;4943073;29;20437;-82
2022/06/07 00:38:10;;;;;;;2.43;2.10;;;17.90;99.60;;;;;;4941295;29;20446;-82
2022/06/07 00:40:37;;;;;;;2.10;1.97;;;17.70;99.80;;;;;;4940731;29;20486;-82
2022/06/07 00:43:06;;;;;;;2.60;2.40;;;17.70;99.90;;;;;;4939343;29;20456;-82
2022/06/07 00:45:33;;;;;;;2.20;2.10;;;17.60;99.90;;;;;;4942666;29;20492;-82
2022/06/07 00:48:00;;;;;;;2.07;1.90;;;17.50;99.90;;;;;;4941767;29;20460;-82
2022/06/07 00:50:32;;;;;;;2.33;2.13;;;17.50;99.90;;;;;;4941798;29;20457;-81
2022/06/07 00:53:00;;;;;;;2.53;2.20;;;17.50;99.90;;;;;;4941640;29;20454;-81
2022/06/07 00:55:27;;;;;;;2.10;2.00;;;17.50;99.90;;;;;;4941479;29;20457;-81
2022/06/07 00:57:54;;;;;;;3.80;2.00;;;17.40;99.90;;;;;;4941654;29;20482;-81
2022/06/07 01:00:24;;;;;;;2.17;2.07;;;17.40;99.90;;;;;;4940808;29;20488;-82
2022/06/07 01:02:52;;;;;;;2.17;1.97;;;17.40;99.90;;;;;;4941272;29;20456;-82
2022/06/07 01:05:19;;;;;;;1.90;1.80;;;17.50;99.90;;;;;;4940528;29;21037;-80
2022/06/07 01:10:45;;;;;;;1.70;1.60;;;17.40;99.90;;;;;;4981877;23;20504;-78
2022/06/07 01:13:13;;;;;;;2.40;2.20;;;17.50;99.90;;;;;;4991185;28;20446;-78
2022/06/07 01:15:43;;;;;;;2.10;2.00;;;17.50;99.90;;;;;;4987882;28;20443;-78
2022/06/07 01:18:10;;;;;;;2.10;2.00;;;17.30;99.90;;;;;;4986248;28;20447;-78
2022/06/07 01:20:37;;;;;;;2.63;2.17;;;17.30;99.90;;;;;;4987195;28;20620;-78
2022/06/07 01:23:05;;;;;;;2.27;2.10;;;17.20;99.90;;;;;;4984930;28;20454;-78
2022/06/07 01:25:32;;;;;;;2.33;2.13;;;17.10;99.90;;;;;;4987102;28;20496;-78
2022/06/07 01:27:59;;;;;;;2.00;1.90;;;17.20;99.90;;;;;;4986588;28;20449;-78
2022/06/07 01:30:26;;;;;;;2.50;2.10;;;17.10;99.90;;;;;;4986411;28;20475;-78
2022/06/07 01:32:53;;;;;;;2.83;2.63;;;17.10;99.90;;;;;;4984738;28;20514;-78
2022/06/07 01:35:20;;;;;;;3.73;2.60;;;17.10;99.90;;;;;;4987004;28;21124;-78
2022/06/07 01:37:46;;;;;;;2.30;2.20;;;16.90;99.90;;;;;;4986275;28;21698;-79
2022/06/07 01:42:55;;;;;;;3.57;3.30;;;16.70;99.90;;;;;;4956444;28;20443;-78
2022/06/07 01:45:22;;;;;;;2.93;2.73;;;16.60;99.90;;;;;;4977558;28;20484;-78
2022/06/07 01:47:49;;;;;;;3.00;2.70;;;16.50;99.90;;;;;;4976980;28;20453;-78
2022/06/07 01:50:17;;;;;;;4.37;2.97;;;16.40;99.90;;;;;;4976484;28;20474;-78
2022/06/07 01:52:44;;;;;;;3.50;2.80;;;16.30;99.90;;;;;;4976762;28;20479;-78
2022/06/07 01:55:10;;;;;;;2.30;2.20;;;16.40;99.90;;;;;;4977434;28;20453;-78
2022/06/07 01:57:39;;;;;;;3.00;2.70;;;16.30;99.90;;;;;;4976733;28;20468;-78
2022/06/07 02:00:07;;;;;;;2.73;2.60;;;16.30;99.90;;;;;;4976918;28;20469;-78
2022/06/07 02:02:33;;;;;;;3.07;2.87;;;16.30;99.90;;;;;;4977762;28;20486;-78
2022/06/07 02:05:00;;;;;;;2.60;2.40;;;16.50;99.90;;;;;;4977096;28;20453;-78
2022/06/07 02:07:27;;;;;;;2.30;2.20;;;16.40;99.90;;;;;;4977864;28;20454;-78
2022/06/07 02:09:53;;;;;;;2.37;2.20;;;16.30;99.90;;;;;;4977989;28;20459;-80
2022/06/07 02:12:20;;;;;;;1.80;1.70;;;16.20;99.90;;;;;;4977711;28;20463;-81
2022/06/07 02:14:48;;;;;;;2.23;1.80;;;16.00;99.90;;;;;;4977676;28;20461;-80
2022/06/07 02:17:16;;;;;;;1.90;1.80;;;15.90;99.90;;;;;;4977713;28;20448;-80
2022/06/07 02:19:44;;;;;;;1.50;1.40;;;15.90;99.90;;;;;;4978204;28;20455;-80
2022/06/07 02:22:11;;;;;;;1.83;1.70;;;15.80;99.90;;;;;;4991838;28;20452;-80
2022/06/07 02:24:37;;;;;;;1.40;1.30;;;15.70;99.90;;;;;;4997533;28;20432;-80
2022/06/07 02:27:07;;;;;;;4.00;1.70;;;15.70;99.90;;;;;;4978066;28;20492;-80
2022/06/07 02:29:38;;;;;;;1.40;1.30;;;15.60;99.90;;;;;;4973032;28;20460;-81
2022/06/07 02:32:11;;;;;;;1.63;1.53;;;15.70;99.90;;;;;;4977616;28;20462;-80
2022/06/07 02:34:38;;;;;;;2.30;1.50;;;15.70;99.90;;;;;;4962024;28;20950;-80
2022/06/07 02:37:06;;;;;;;1.73;1.63;;;15.60;99.90;;;;;;4977394;28;20487;-80
2022/06/07 02:39:35;;;;;;;1.93;1.70;;;15.60;99.90;;;;;;4977693;28;20514;-80
2022/06/07 02:42:03;;;;;;;2.07;1.73;;;15.60;99.90;;;;;;4977135;28;20478;-80
2022/06/07 02:44:30;;;;;;;3.53;1.80;;;15.60;99.90;;;;;;4978572;28;20816;-81
2022/06/07 02:46:57;;;;;;;1.87;1.67;;;15.70;99.90;;;;;;4978172;28;20483;-81
2022/06/07 02:49:25;;;;;;;1.80;1.30;;;15.80;99.90;;;;;;4978284;28;20457;-80
2022/06/07 02:51:52;;;;;;;1.30;1.20;;;16.00;99.90;;;;;;4977633;28;20485;-81
2022/06/07 02:54:18;;;;;;;1.83;1.30;;;16.10;99.90;;;;;;4978008;28;20454;-80
2022/06/07 02:56:45;;;;;;;1.57;1.47;;;16.10;99.90;;;;;;4977747;28;20451;-81
2022/06/07 02:59:12;;;;;;;1.53;1.43;;;16.20;99.90;;;;;;4978308;28;20460;-80
2022/06/07 03:01:39;;;;;;;2.03;1.93;;;16.30;99.90;;;;;;4977185;28;21021;-80
2022/06/07 03:04:06;;;;;;;2.30;2.10;;;16.20;99.90;;;;;;4978648;28;20452;-80
2022/06/07 03:06:34;;;;;;;1.70;1.60;;;16.30;99.90;;;;;;4982295;28;20999;-81
2022/06/07 03:09:00;;;;;;;1.90;1.80;;;16.30;99.90;;;;;;4981185;28;20456;-80
2022/06/07 03:11:28;;;;;;;2.10;1.60;;;16.20;99.90;;;;;;4981134;28;20487;-80
2022/06/07 03:13:54;;;;;;;1.67;1.60;;;16.40;99.90;;;;;;4981057;28;20496;-81
2022/06/07 03:16:21;;;;;;;2.00;1.90;;;16.30;99.90;;;;;;4981142;28;20449;-81
2022/06/07 03:18:48;;;;;;;2.30;2.10;;;16.30;99.90;;;;;;4980697;28;20457;-81
2022/06/07 03:21:15;;;;;;;2.53;1.80;;;16.10;99.90;;;;;;4981086;28;21022;-80
2022/06/07 03:23:43;;;;;;;3.67;1.87;;;16.10;99.90;;;;;;4981241;28;20460;-80
2022/06/07 03:26:12;;;;;;;3.43;1.70;;;16.20;99.90;;;;;;4980987;28;20484;-81
2022/06/07 03:28:38;;;;;;;1.47;1.37;;;16.10;99.90;;;;;;4981543;28;20459;-80
2022/06/07 03:31:07;;;;;;;1.40;1.30;;;16.20;99.90;;;;;;4980976;28;20472;-81
2022/06/07 03:33:34;;;;;;;1.57;1.47;;;16.10;99.90;;;;;;4981001;28;20456;-81
2022/06/07 03:36:07;;;;;;;2.90;1.80;;;16.00;99.90;;;;;;4980868;28;20449;-81
2022/06/07 03:38:34;;;;;;;1.63;1.53;;;15.90;99.90;;;;;;4980657;28;20456;-80
2022/06/07 03:41:02;;;;;;;1.43;1.30;;;15.80;99.90;;;;;;4980654;28;20476;-80
2022/06/07 03:43:29;;;;;;;1.53;1.43;;;15.60;99.90;;;;;;4980452;28;20448;-80
2022/06/07 03:45:56;;;;;;;1.07;1.07;;;15.40;99.90;;;;;;4980461;28;20488;-80
2022/06/07 03:48:23;;;;;;;1.90;1.80;;;15.30;99.90;;;;;;4980619;28;20449;-80
2022/06/07 03:50:49;;;;;;;1.20;1.10;;;15.40;99.90;;;;;;4982144;28;20486;-80
2022/06/07 03:53:16;;;;;;;1.60;1.50;;;15.50;99.90;;;;;;4981903;28;20451;-80
2022/06/07 03:55:44;;;;;;;1.57;1.50;;;15.60;99.90;;;;;;4980232;28;20452;-80
2022/06/07 03:58:13;;;;;;;3.80;1.50;;;15.70;99.90;;;;;;4981059;28;20547;-80
2022/06/07 04:00:39;;;;;;;1.37;1.27;;;15.80;99.90;;;;;;4979868;28;20480;-81
2022/06/07 04:03:06;;;;;;;1.77;1.67;;;15.90;99.90;;;;;;4964327;28;20469;-80
2022/06/07 04:05:33;;;;;;;1.13;1.03;;;16.00;99.90;;;;;;4979355;28;20836;-80
2022/06/07 04:08:12;;;;;;;1.20;1.20;;;16.10;99.90;;;;;;4980305;28;20524;-81
2022/06/07 04:10:45;;;;;;;1.97;1.30;;;16.20;99.90;;;;;;4979903;28;20488;-80
2022/06/07 04:13:14;;;;;;;2.73;2.10;;;16.20;99.90;;;;;;4980540;28;20962;-81
2022/06/07 04:15:41;;;;;;;1.67;1.57;;;16.30;99.90;;;;;;4980584;28;20467;-81
2022/06/07 04:18:08;;;;;;;1.50;1.40;;;16.40;99.90;;;;;;4980355;28;20805;-81
2022/06/07 04:20:35;;;;;;;1.70;1.60;;;16.40;99.90;;;;;;4980118;28;20536;-80
2022/06/07 04:23:02;;;;;;;2.73;2.13;;;16.40;99.90;;;;;;4980668;28;20452;-80
2022/06/07 04:25:29;;;;;;;1.73;1.63;;;16.40;99.90;;;;;;4980629;28;20472;-81
2022/06/07 04:27:56;;;;;;;1.90;1.80;;;16.50;99.90;;;;;;4976296;28;20461;-80
2022/06/07 04:30:24;;;;;;;1.70;1.53;;;16.50;99.90;;;;;;4979833;28;20506;-81
2022/06/07 04:32:51;;;;;;;2.50;1.80;;;16.50;99.90;;;;;;4980292;28;20458;-80
2022/06/07 04:35:18;;;;;;;2.00;1.90;;;16.40;99.90;;;;;;4980088;28;20464;-80
2022/06/07 04:37:45;;;;;;;1.97;1.87;;;16.50;99.90;;;;;;4980742;28;20484;-81
2022/06/07 04:40:12;;;;;;;2.47;1.77;;;16.60;99.90;;;;;;4979653;28;20474;-81
2022/06/07 04:42:39;;;;;;;2.17;2.00;;;16.60;99.90;;;;;;4980341;28;20459;-81
2022/06/07 04:45:09;;;;;;;2.33;2.23;;;16.60;99.90;;;;;;4979845;28;20460;-80
2022/06/07 04:47:37;;;;;;;2.00;1.83;;;16.70;99.90;;;;;;4979652;28;20494;-81
2022/06/07 04:50:05;;;;;;;2.70;2.10;;;16.70;99.90;;;;;;4979285;28;20858;-80
2022/06/07 04:52:32;;;;;;;3.23;2.93;;;16.60;99.90;;;;;;4979417;28;20961;-80
2022/06/07 04:54:59;;;;;;;2.50;2.40;;;16.60;99.90;;;;;;4979719;28;20462;-81
2022/06/07 04:57:26;;;;;;;2.43;2.20;;;16.60;99.90;;;;;;4979516;28;20470;-80
2022/06/07 04:59:53;;;;;;;2.30;2.20;;;16.50;99.90;;;;;;4979343;28;20455;-80
2022/06/07 05:02:19;;;;;;;2.70;2.43;;;16.60;99.90;;;;;;4978941;28;20458;-81
2022/06/07 05:04:47;;;;;;;2.60;2.33;;;16.50;99.90;;;;;;4979581;28;20453;-81
2022/06/07 05:07:15;;;;;;;2.10;1.90;;;16.70;99.90;;;;;;4979260;28;20488;-81
2022/06/07 05:09:42;;;;;;;2.20;2.10;;;16.70;99.90;;;;;;4979665;28;20454;-81
2022/06/07 05:12:09;;;;;;;2.57;2.13;;;16.60;99.90;;;;;;4978546;28;20464;-81
2022/06/07 05:14:36;;;;;;;2.53;2.33;;;16.60;99.90;;;;;;4979074;28;20469;-81
2022/06/07 05:17:03;;;;;;;1.70;1.60;;;16.60;99.90;;;;;;4979594;28;20451;-81
2022/06/07 05:19:33;;;;;;;1.67;1.57;;;16.40;99.90;;;;;;4982959;28;20450;-80
2022/06/07 05:22:01;;;;;;;4.13;3.73;;;16.50;99.90;;;;;;4986492;28;20484;-81
2022/06/07 05:24:28;;;;;;;1.47;1.40;;;16.50;99.90;;;;;;4982830;28;20514;-81
2022/06/07 05:26:57;;;;;;;1.80;1.70;;;16.50;99.90;;;;;;4978184;28;20490;-80
2022/06/07 05:29:29;;;;;;;3.10;2.10;;;16.50;99.90;;;;;;4979662;28;20520;-80
2022/06/07 05:31:56;;;;;;;1.90;1.80;;;16.50;99.90;;;;;;4987520;28;20493;-80
2022/06/07 05:34:22;;;;;;;2.57;1.83;;;16.40;99.90;;;;;;4987754;28;20450;-81
2022/06/07 05:36:49;;;;;;;2.47;2.20;;;16.50;99.90;;;;;;4980985;28;20461;-81
2022/06/07 05:39:21;;;;;;;2.13;2.03;;;16.60;99.90;;;;;;4979985;28;20947;-81
2022/06/07 05:41:48;;;;;;;2.30;2.20;;;16.50;99.90;;;;;;4990192;28;20474;-80
2022/06/07 05:44:15;;;;;;;2.77;2.57;;;16.50;99.90;;;;;;4995190;28;20454;-81
2022/06/07 05:46:42;;;;;;;2.67;2.40;;;16.60;99.90;;;;;;4996842;28;20505;-81
2022/06/07 05:49:09;;;;;;;2.77;2.33;;;16.70;99.90;;;;;;4971751;28;20455;-81
2022/06/07 05:51:36;;;;;;;2.27;2.17;;;16.80;99.90;;;;;;4980955;28;20474;-81
2022/06/07 05:54:03;;;;;;;2.03;1.93;;;16.80;99.90;;;;;;4982511;28;20450;-81
2022/06/07 05:56:31;;;;;;;2.60;2.40;;;16.90;99.90;;;;;;4982908;28;20830;-81
2022/06/07 05:58:58;;;;;;;3.43;2.37;;;16.80;99.90;;;;;;4982347;28;20458;-81
2022/06/07 06:01:25;;;;;;;2.97;2.53;;;17.00;99.90;;;;;;4966595;28;20475;-82
2022/06/07 06:03:52;;;;;;;3.80;1.83;;;17.20;99.90;;;;;;4964412;28;20455;-82
2022/06/07 06:11:59;;;;;;;2.23;2.03;;;17.30;99.90;;;;;;4983465;28;20462;-82
2022/06/07 06:14:25;;;;;;;3.13;2.93;;;17.30;99.90;;;;;;4983913;28;20461;-82
2022/06/07 06:16:52;;;;;;;2.30;2.20;;;17.20;99.90;;;;;;4986988;28;20501;-81
2022/06/07 06:19:19;;;;;;;2.80;2.27;;;17.30;99.90;;;;;;4987912;28;20458;-82
2022/06/07 06:21:47;;;;;;;2.30;2.20;;;17.40;99.90;;;;;;4991355;28;20480;-82
2022/06/07 06:24:14;;;;;;;2.53;2.00;;;17.30;99.90;;;;;;4975538;28;20967;-83
2022/06/07 06:26:42;;;;;;;2.90;2.70;;;17.40;99.90;;;;;;4974607;28;20489;-83
2022/06/07 06:29:12;;;;;;;2.70;2.50;;;17.50;99.90;;;;;;4974428;28;20462;-84
2022/06/07 06:31:41;;;;;;;2.30;2.13;;;17.40;99.90;;;;;;4976972;28;20486;-83
2022/06/07 06:34:08;;;;;;;2.40;2.20;;;17.40;99.90;;;;;;4975413;28;20574;-83
2022/06/07 06:36:35;;;;;;;1.90;1.80;;;17.60;99.90;;;;;;4982468;28;20544;-83
2022/06/07 06:39:06;;;;;;;2.30;2.20;;;17.60;99.90;;;;;;4975955;28;20460;-83
2022/06/07 06:41:47;;;;;;;2.70;2.50;;;17.50;99.90;;;;;;4977745;28;20505;-82
2022/06/07 06:44:17;;;;;;;6.27;2.03;;;17.50;99.90;;;;;;4965641;28;20474;-82
2022/06/07 06:46:47;;;;;;;2.40;2.20;;;17.60;99.90;;;;;;4981857;28;20486;-81
2022/06/07 06:49:14;;;;;;;6.53;2.60;;;17.50;99.90;;;;;;4978585;28;20826;-83
2022/06/07 06:51:42;;;;;;;1.73;1.57;;;17.50;99.90;;;;;;4980112;28;20561;-83
2022/06/07 06:54:11;;;;;;;2.27;1.73;;;17.60;99.90;;;;;;4971972;28;20466;-83
2022/06/07 06:56:38;;;;;;;2.10;1.90;;;17.50;99.90;;;;;;4975653;28;20487;-78
2022/06/07 06:59:05;;;;;;;3.00;2.00;;;17.50;99.90;;;;;;4983013;28;20534;-81
2022/06/07 07:01:35;;;;;;;2.03;1.80;;;17.70;99.90;;;;;;4983171;28;20466;-80
2022/06/07 07:04:05;;;;;;;1.83;1.73;;;17.80;99.90;;;;;;4986256;28;20450;-81
2022/06/07 07:06:33;;;;;;;3.50;2.87;;;18.00;99.90;;;;;;4985024;28;20454;-79
2022/06/07 07:09:00;;;;;;;1.50;1.40;;;18.00;99.90;;;;;;4987418;28;20462;-78
2022/06/07 07:11:29;;;;;;;2.50;1.80;;;18.20;99.90;;;;;;4994089;28;20527;-79
2022/06/07 07:13:57;;;;;;;1.60;1.43;;;18.40;99.90;;;;;;4978464;28;20446;-80
2022/06/07 07:16:36;;;;;;;2.10;1.80;;;18.40;99.90;;;;;;4976864;28;21211;-82
2022/06/07 07:19:05;;;;;;;1.70;1.60;;;18.30;99.90;;;;;;4972673;28;20541;-80
2022/06/07 07:21:35;;;;;;;1.83;1.50;;;18.30;99.90;;;;;;4970776;28;20467;-81
2022/06/07 07:24:02;;;;;;;1.67;1.20;;;18.20;99.90;;;;;;4975677;28;20458;-80
2022/06/07 07:29:16;;;;;;;2.37;2.17;;;18.20;99.90;;;;;;4937155;29;20501;-83
2022/06/07 07:35:51;;;;;;;1.70;1.47;;;18.50;99.90;;;;;;4900576;29;20523;-85
2022/06/07 07:38:20;;;;;;;1.97;1.87;;;18.80;99.90;;;;;;4905669;29;20876;-84
2022/06/07 07:40:47;;;;;;;1.40;1.30;;;19.20;99.90;;;;;;4938931;29;20457;-84
2022/06/07 07:43:19;;;;;;;2.50;2.30;;;19.40;99.90;;;;;;4931834;29;20453;-85
2022/06/07 07:45:52;;;;;;;1.60;1.50;;;19.60;99.90;;;;;;4942765;29;20565;-85
2022/06/07 07:48:29;;;;;;;1.47;1.37;;;19.90;99.90;;;;;;4943717;29;20485;-85
2022/06/07 07:50:56;;;;;;;1.70;1.60;;;20.00;99.90;;;;;;4926885;29;20464;-85
2022/06/07 07:53:24;;;;;;;1.67;1.57;;;20.00;99.70;;;;;;4930191;29;20493;-86
2022/06/07 07:56:14;;;;;;;1.30;1.20;;;20.10;99.00;;;;;;4945988;29;20481;-84
2022/06/07 07:58:47;;;;;;;1.63;1.20;;;20.20;97.50;;;;;;4953797;29;20432;-83
2022/06/07 08:01:21;;;;;;;1.43;1.30;;;20.20;97.40;;;;;;4958432;29;20426;-83
2022/06/07 08:04:09;;;;;;;1.27;1.20;;;20.10;97.70;;;;;;4954109;29;20463;-84
2022/06/07 08:06:54;;;;;;;1.50;1.40;;;20.30;97.40;;;;;;4951616;29;20532;-84
2022/06/07 08:09:28;;;;;;;1.93;1.83;;;20.50;97.80;;;;;;4951918;29;20466;-84
2022/06/07 08:11:55;;;;;;;1.23;1.13;;;20.50;97.50;;;;;;4947951;29;20457;-83
2022/06/07 08:14:23;;;;;;;2.47;2.13;;;20.60;97.70;;;;;;4950857;29;20447;-86
2022/06/07 08:23:58;;;;;;;1.90;1.80;;;20.80;95.90;;;;;;4935905;29;20462;-84
2022/06/07 08:26:30;;;;;;;2.07;1.50;;;20.90;95.20;;;;;;4925461;29;21101;-85
2022/06/07 08:29:40;;;;;;;2.20;1.37;;;21.00;94.10;;;;;;4942517;29;20486;-85
2022/06/07 08:32:08;;;;;;;1.40;1.30;;;21.10;94.20;;;;;;4944010;29;20447;-84
2022/06/07 08:37:34;;;;;;;4.93;2.10;;;21.20;93.30;;;;;;4944535;29;20435;-84
2022/06/07 08:40:01;;;;;;;6.43;2.90;;;20.70;93.30;;;;;;4940844;29;20870;-81
2022/06/07 08:42:32;;;;;;;1.57;1.10;;;20.50;94.60;;;;;;4943368;29;20467;-82
2022/06/07 08:45:01;;;;;;;1.87;1.70;;;20.50;94.20;;;;;;4944520;29;20483;-83
2022/06/07 08:47:34;;;;;;;1.43;1.33;;;20.20;93.70;;;;;;4943358;29;20493;-84
2022/06/07 08:50:12;;;;;;;1.53;1.40;;;20.20;93.90;;;;;;4944569;29;20471;-82
2022/06/07 08:52:41;;;;;;;1.13;1.10;;;20.10;95.00;;;;;;4943796;29;20464;-83
2022/06/07 08:55:14;;;;;;;1.87;1.47;;;19.90;95.10;;;;;;4943243;29;20537;-84
2022/06/07 08:57:43;;;;;;;1.57;1.33;;;19.80;95.00;;;;;;4945218;29;20464;-82
2022/06/07 09:00:23;;;;;;;1.77;1.20;;;19.70;95.30;;;;;;4945988;29;20453;-84
2022/06/07 09:03:27;;;;;;;2.00;1.10;;;20.00;96.00;;;;;;4943997;29;20821;-84
2022/06/07 09:05:54;;;;;;;1.90;1.23;;;20.10;95.30;;;;;;4946116;29;20548;-83
2022/06/07 09:08:21;;;;;;;2.40;1.43;;;20.30;94.30;;;;;;4947222;29;20489;-84
2022/06/07 09:13:50;;;;;;;1.83;1.37;;;20.40;95.60;;;;;;4928048;29;20426;-84
2022/06/07 09:16:17;;;;;;;1.63;1.27;;;20.50;95.20;;;;;;4939843;29;20481;-83
2022/06/07 09:18:58;;;;;;;1.03;1.03;;;20.60;95.80;;;;;;4944671;29;20513;-84
2022/06/07 09:21:30;;;;;;;1.60;1.50;;;20.50;94.20;;;;;;4943179;29;20816;-84
2022/06/07 09:24:02;;;;;;;1.53;1.30;;;20.80;92.80;;;;;;4941150;29;20828;-83
2022/06/07 09:26:31;;;;;;;3.90;1.20;;;21.10;93.50;;;;;;4942410;29;20991;-84
2022/06/07 09:29:15;;;;;;;1.40;1.30;;;21.10;93.20;;;;;;4943090;29;20514;-83
2022/06/07 09:31:44;;;;;;;2.30;1.30;;;21.20;92.30;;;;;;4924134;29;20520;-85
2022/06/07 09:34:19;;;;;;;1.40;1.30;;;21.10;92.80;;;;;;4930788;29;20470;-84
2022/06/07 09:36:54;;;;;;;1.30;1.20;;;21.20;93.00;;;;;;4941233;29;20470;-85
2022/06/07 09:39:28;;;;;;;1.90;1.40;;;21.20;93.70;;;;;;4941117;29;20466;-81
2022/06/07 09:41:59;;;;;;;1.03;1.00;;;21.10;94.30;;;;;;4942476;29;20455;-82
2022/06/07 09:44:31;;;;;;;1.47;1.30;;;21.00;94.00;;;;;;4943373;29;20892;-85
2022/06/07 09:47:02;;;;;;;1.40;1.13;;;21.10;93.70;;;;;;4943419;29;20455;-83
2022/06/07 09:49:34;;;;;;;1.57;1.10;;;21.10;94.10;;;;;;4944634;29;20494;-84
2022/06/07 09:52:10;;;;;;;1.50;1.40;;;21.40;90.90;;;;;;4944802;29;20554;-85
2022/06/07 09:54:42;;;;;;;1.33;1.10;;;21.80;90.00;;;;;;4945635;29;20462;-82
2022/06/07 09:57:22;;;;;;;1.23;1.20;;;21.90;90.70;;;;;;4942600;29;20462;-81
2022/06/07 10:00:04;;;;;;;1.20;1.10;;;21.90;91.10;;;;;;4942356;29;20474;-83
2022/06/07 10:03:16;;;;;;;2.30;1.67;;;21.70;91.30;;;;;;4941417;29;20486;-83
2022/06/07 10:05:50;;;;;;;1.60;1.10;;;21.30;90.40;;;;;;4941368;29;20477;-84
2022/06/07 10:08:44;;;;;;;1.70;1.07;;;21.40;90.50;;;;;;4942246;29;20538;-84
2022/06/07 10:11:18;;;;;;;1.67;1.57;;;21.40;91.50;;;;;;4940809;29;20460;-84
2022/06/07 10:13:57;;;;;;;1.10;1.10;;;21.50;91.40;;;;;;4943944;29;20503;-82
2022/06/07 10:16:36;;;;;;;0.90;0.80;;;21.50;91.00;;;;;;4942272;29;20486;-80
2022/06/07 10:19:15;;;;;;;1.00;1.00;;;21.70;89.20;;;;;;4941960;29;20458;-82
2022/06/07 10:22:17;;;;;;;0.97;0.90;;;21.90;88.80;;;;;;4952880;29;20459;-80
2022/06/07 10:24:54;;;;;;;1.40;1.30;;;21.90;88.00;;;;;;4898119;29;20461;-82
2022/06/07 10:27:23;;;;;;;1.90;1.30;;;21.80;89.40;;;;;;4935417;29;20486;-83
2022/06/07 10:30:15;;;;;;;1.00;1.00;;;21.80;88.80;;;;;;4942489;29;20462;-83
2022/06/07 10:33:07;;;;;;;1.53;0.90;;;22.00;88.20;;;;;;4942276;29;20458;-83
2022/06/07 10:35:42;;;;;;;3.43;2.40;;;22.20;87.40;;;;;;4941742;29;20497;-82
2022/06/07 10:38:45;;;;;;;0.90;0.90;;;22.20;87.50;;;;;;4942557;29;20442;-83
2022/06/07 10:41:22;;;;;;;1.13;1.03;;;22.10;88.20;;;;;;4911316;29;20464;-82
2022/06/07 10:43:57;;;;;;;0.80;0.80;;;21.70;88.30;;;;;;4941898;29;20457;-81
2022/06/07 10:46:25;;;;;;;1.67;1.00;;;21.20;88.90;;;;;;4941914;29;20475;-82
2022/06/07 10:49:05;;;;;;;1.13;1.07;;;21.20;90.30;;;;;;4941803;29;20501;-83
2022/06/07 10:54:25;;;;;;;1.33;0.97;;;20.90;90.90;;;;;;4942427;29;20453;-83
2022/06/07 10:57:01;;;;;;;1.40;1.10;;;21.00;91.70;;;;;;4941782;29;20486;-82
2022/06/07 10:59:30;;;;;;;1.30;1.00;;;21.10;91.70;;;;;;4941742;29;20817;-82
2022/06/07 11:02:02;;;;;;;1.20;1.10;;;21.30;90.30;;;;;;4942136;29;20457;-82
2022/06/07 11:10:18;;;;;;;1.63;1.13;;;21.90;92.10;;;;;;4942033;29;20539;-82
2022/06/07 11:12:53;;;;;;;1.30;1.20;;;21.70;92.10;;;;;;4942317;29;20472;-83
2022/06/07 11:15:26;;;;;;;1.53;1.40;;;21.60;90.70;;;;;;4941873;29;20477;-82
2022/06/07 11:18:02;;;;;;;2.67;1.37;;;22.00;91.50;;;;;;4941672;29;20443;-83
2022/06/07 11:20:32;;;;;;;1.20;1.10;;;22.20;91.40;;;;;;4942534;29;20457;-83
2022/06/07 11:23:09;;;;;;;1.30;1.20;;;22.50;90.40;;;;;;4942000;29;20495;-82
2022/06/07 11:25:39;;;;;;;1.13;1.13;;;22.50;88.70;;;;;;4943430;29;20876;-82
2022/06/07 11:28:13;;;;;;;1.03;1.03;;;22.60;90.30;;;;;;4945899;29;20521;-83
2022/06/07 11:30:45;;;;;;;1.87;1.33;;;22.70;89.70;;;;;;4946029;29;20969;-83
2022/06/07 11:33:59;;;;;;;1.87;1.77;;;23.00;88.00;;;;;;4946973;29;20553;-81
2022/06/07 11:36:35;;;;;;;4.60;2.20;;;23.10;89.30;;;;;;4888815;29;20510;-83
2022/06/07 11:39:20;;;;;;;1.80;1.40;;;22.40;89.50;;;;;;4888083;29;20450;-82
2022/06/07 11:41:51;;;;;;;1.60;1.33;;;22.40;90.40;;;;;;4921130;29;20467;-83
2022/06/07 11:44:35;;;;;;;1.63;1.50;;;22.50;90.50;;;;;;4945524;29;20451;-83
2022/06/07 11:47:19;;;;;;;1.23;1.13;;;22.50;90.70;;;;;;4945443;29;20511;-83
2022/06/07 11:50:10;;;;;;;1.83;1.43;;;22.20;90.60;;;;;;4945243;29;20491;-83
2022/06/07 11:52:55;;;;;;;1.03;1.03;;;22.00;91.20;;;;;;4945901;29;20462;-83
2022/06/07 11:55:24;;;;;;;1.70;1.60;;;22.00;91.60;;;;;;4946344;29;20591;-83
2022/06/07 11:58:03;;;;;;;2.33;1.13;;;22.10;90.80;;;;;;4946279;29;20461;-81
2022/06/07 12:00:53;;;;;;;1.53;1.43;;;22.30;91.40;;;;;;4945150;29;20521;-82
2022/06/07 12:03:34;;;;;;;1.00;1.00;;;22.60;90.20;;;;;;4946067;29;20455;-83
2022/06/07 12:06:23;;;;;;;1.30;1.20;;;22.80;90.80;;;;;;4946097;29;20480;-82
2022/06/07 12:09:01;;;;;;;1.60;1.50;;;22.90;90.10;;;;;;4945950;29;20589;-82
2022/06/07 12:11:32;;;;;;;1.07;0.97;;;23.40;91.00;;;;;;4945364;29;20472;-79
2022/06/07 12:14:18;;;;;;;2.60;1.83;;;23.60;89.90;;;;;;4947602;29;20458;-79
2022/06/07 12:16:54;;;;;;;1.40;1.30;;;23.50;89.20;;;;;;4946804;29;20489;-80
2022/06/07 12:19:23;;;;;;;2.23;1.40;;;23.70;89.00;;;;;;4946906;29;20449;-79
2022/06/07 12:21:56;;;;;;;1.70;1.60;;;23.70;86.80;;;;;;4946713;29;20460;-79
2022/06/07 12:24:25;;;;;;;1.77;1.67;;;23.90;87.90;;;;;;4946304;29;20458;-79
2022/06/07 12:26:53;;;;;;;2.10;0.90;;;23.80;87.50;;;;;;4946277;29;20473;-80
2022/06/07 12:29:23;;;;;;;1.00;1.00;;;23.80;86.80;;;;;;4946498;29;20529;-79
2022/06/07 12:31:52;;;;;;;1.20;1.20;;;23.90;85.60;;;;;;4945763;29;20457;-80
2022/06/07 12:34:21;;;;;;;1.63;1.53;;;24.00;87.50;;;;;;4945867;29;20458;-82
2022/06/07 12:36:54;;;;;;;1.53;1.43;;;24.10;87.40;;;;;;4943199;29;20477;-82
2022/06/07 12:39:21;;;;;;;2.80;1.73;;;24.00;84.20;;;;;;4945311;29;20451;-83
2022/06/07 12:41:53;;;;;;;3.37;1.50;;;24.30;85.50;;;;;;4945538;29;20460;-81
2022/06/07 12:44:27;;;;;;;2.43;1.50;;;24.50;85.60;;;;;;4950753;29;20995;-81
2022/06/07 12:46:55;;;;;;;2.53;1.30;;;24.40;84.60;;;;;;4950164;29;20533;-82
2022/06/07 12:49:24;;;;;;;1.70;1.60;;;24.50;85.50;;;;;;4948036;29;20776;-80
2022/06/07 12:51:56;;;;;;;2.70;1.57;;;24.50;84.60;;;;;;4946001;29;20464;-80
2022/06/07 12:54:23;;;;;;;1.70;1.60;;;24.40;84.60;;;;;;4946345;29;20476;-80
2022/06/07 12:56:54;;;;;;;2.20;1.20;;;24.40;84.70;;;;;;4945383;29;20482;-80
2022/06/07 12:59:24;;;;;;;1.30;1.20;;;24.30;83.70;;;;;;4945369;29;20454;-80
2022/06/07 13:01:52;;;;;;;8.67;2.30;;;24.80;86.30;;;;;;4945955;29;20455;-80
2022/06/07 13:04:26;;;;;;;3.80;2.20;;;25.60;85.00;;;;;;4946092;29;20554;-80
2022/06/07 13:07:01;;;;;;;1.73;1.30;;;26.30;83.50;;;;;;4945459;29;20484;-81
2022/06/07 13:09:28;;;;;;;0.90;0.90;;;27.00;78.50;;;;;;4945520;29;20496;-80
2022/06/07 13:11:57;;;;;;;1.37;1.20;;;26.80;78.10;;;;;;4943842;29;20837;-81
2022/06/07 13:14:25;;;;;;;1.10;1.10;;;26.60;75.60;;;;;;4946727;29;20487;-81
2022/06/07 13:16:52;;;;;;;1.17;1.07;;;26.20;75.30;;;;;;4949784;29;20491;-82
2022/06/07 13:19:29;;;;;;;5.00;1.50;;;26.40;74.60;;;;;;4950130;29;20458;-81
2022/06/07 13:22:01;;;;;;;59.37;7.70;;;26.70;72.80;;;;;;4949790;29;20431;-81
2022/06/07 13:24:35;;;;;;;4.13;1.90;;;27.00;74.20;;;;;;4949688;29;20450;-82
2022/06/07 13:27:06;;;;;;;1.00;1.00;;;27.00;75.10;;;;;;4950470;29;20460;-83
2022/06/07 13:29:34;;;;;;;2.70;1.23;;;27.20;72.70;;;;;;4949991;29;20498;-82
2022/06/07 13:32:03;;;;;;;1.37;1.30;;;27.10;71.60;;;;;;4949575;29;20483;-82
2022/06/07 13:34:33;;;;;;;0.80;0.80;;;26.00;72.90;;;;;;4949741;29;20461;-81
2022/06/07 13:37:15;;;;;;;1.20;1.20;;;25.90;74.40;;;;;;4948420;29;20452;-81
2022/06/07 13:39:55;;;;;;;1.03;0.93;;;26.00;75.00;;;;;;4951676;29;20483;-82
2022/06/07 13:42:25;;;;;;;0.90;0.90;;;26.30;72.60;;;;;;4949805;29;20457;-82
2022/06/07 13:45:01;;;;;;;1.40;1.20;;;27.10;73.20;;;;;;4949864;29;20460;-82
2022/06/07 13:47:35;;;;;;;2.13;0.97;;;28.10;72.30;;;;;;4949291;29;20463;-82